createdAt,value
2022-12-12T00:01:21.865Z,39.17
2022-12-12T00:03:51.436Z,42.97
2022-12-12T00:06:18.813Z,41.67
2022-12-12T00:08:45.856Z,40.63
2022-12-12T00:11:13.689Z,40.35
2022-12-12T00:13:40.487Z,43.63
2022-12-12T00:16:11.104Z,41.33
2022-12-12T00:18:38.883Z,39.60
2022-12-12T00:21:13.030Z,40.10
2022-12-12T00:23:42.203Z,43.75
2022-12-12T00:26:17.808Z,41.78
2022-12-12T00:28:44.771Z,42.15
2022-12-12T00:31:11.672Z,42.08
2022-12-12T00:33:40.666Z,42.13
2022-12-12T00:36:07.919Z,44.88
2022-12-12T00:38:37.626Z,40.65
2022-12-12T00:41:05.830Z,41.22
2022-12-12T00:43:32.733Z,46.33
2022-12-12T00:46:00.196Z,44.80
2022-12-12T00:48:27.394Z,43.28
2022-12-12T00:50:57.877Z,43.58
2022-12-12T00:53:27.558Z,43.83
2022-12-12T00:55:58.412Z,46.33
2022-12-12T00:58:25.772Z,43.00
2022-12-12T01:00:53.108Z,41.08
2022-12-12T01:03:20.506Z,40.70
2022-12-12T01:05:47.490Z,39.40
2022-12-12T01:08:16.982Z,39.33
2022-12-12T01:10:46.214Z,40.97
2022-12-12T01:13:12.935Z,40.50
2022-12-12T01:15:39.686Z,39.00
2022-12-12T01:18:06.717Z,36.30
2022-12-12T01:20:35.925Z,39.35
2022-12-12T01:23:02.674Z,37.38
2022-12-12T01:25:31.858Z,38.95
2022-12-12T01:27:59.366Z,39.58
2022-12-12T01:30:26.456Z,38.75
2022-12-12T01:32:55.118Z,38.78
2022-12-12T01:35:23.808Z,38.55
2022-12-12T01:37:52.774Z,38.78
2022-12-12T01:40:23.884Z,43.20
2022-12-12T01:42:53.874Z,41.38
2022-12-12T01:46:14.240Z,42.45
2022-12-12T01:48:49.484Z,41.38
2022-12-12T01:51:21.549Z,39.65
2022-12-12T01:54:07.327Z,39.15
2022-12-12T01:56:37.993Z,37.80
2022-12-12T01:59:06.869Z,40.75
2022-12-12T02:01:36.038Z,36.78
2022-12-12T02:04:03.599Z,40.55
2022-12-12T02:06:33.535Z,38.10
2022-12-12T02:09:04.849Z,37.08
2022-12-12T02:11:38.192Z,36.95
2022-12-12T02:14:05.016Z,42.45
2022-12-12T02:16:56.044Z,39.08
2022-12-12T02:19:49.801Z,45.63
2022-12-12T02:22:31.719Z,32.95
2022-12-12T02:28:10.036Z,36.85
2022-12-12T02:31:07.000Z,38.15
2022-12-12T02:33:55.801Z,36.78
2022-12-12T02:36:28.107Z,39.22
2022-12-12T02:39:08.301Z,41.35
2022-12-12T02:41:43.179Z,40.00
2022-12-12T02:44:36.157Z,39.22
2022-12-12T02:47:12.722Z,40.45
2022-12-12T02:49:46.399Z,41.72
2022-12-12T02:52:13.563Z,41.15
2022-12-12T02:54:42.783Z,39.28
2022-12-12T02:57:21.448Z,39.17
2022-12-12T02:59:53.398Z,41.10
2022-12-12T03:02:52.675Z,39.83
2022-12-12T03:06:02.071Z,43.13
2022-12-12T03:08:54.976Z,39.20
2022-12-12T03:11:33.690Z,41.42
2022-12-12T03:14:15.474Z,41.00
2022-12-12T03:16:59.314Z,42.80
2022-12-12T03:19:50.479Z,44.05
2022-12-12T03:23:12.980Z,43.30
2022-12-12T03:28:33.968Z,45.00
2022-12-12T03:31:09.373Z,44.85
2022-12-12T03:33:41.669Z,42.97
2022-12-12T03:36:25.216Z,40.72
2022-12-12T03:39:02.227Z,47.70
2022-12-12T03:41:43.431Z,45.28
2022-12-12T03:44:22.405Z,41.63
2022-12-12T03:46:54.930Z,41.22
2022-12-12T03:49:36.560Z,47.33
2022-12-12T03:52:13.094Z,46.05
2022-12-12T03:54:51.022Z,45.60
2022-12-12T03:57:24.769Z,45.63
2022-12-12T04:00:14.821Z,46.78
2022-12-12T04:02:58.484Z,46.40
2022-12-12T04:06:21.183Z,48.28
2022-12-12T04:09:07.344Z,55.45
2022-12-12T04:12:13.173Z,48.10
2022-12-12T04:14:51.195Z,49.10
2022-12-12T04:17:23.403Z,45.42
2022-12-12T04:20:26.729Z,45.22
2022-12-12T04:23:22.992Z,45.08
2022-12-12T04:26:20.661Z,45.92
2022-12-12T04:28:57.764Z,46.15
2022-12-12T04:31:28.141Z,48.95
2022-12-12T04:34:01.221Z,41.58
2022-12-12T04:36:31.637Z,42.25
2022-12-12T04:39:00.376Z,45.20
2022-12-12T04:41:31.043Z,39.35
2022-12-12T04:44:00.406Z,45.08
2022-12-12T04:46:31.119Z,43.90
2022-12-12T04:49:05.540Z,49.40
2022-12-12T04:51:37.229Z,44.08
2022-12-12T04:54:24.292Z,44.55
2022-12-12T04:56:56.837Z,45.42
2022-12-12T04:59:26.539Z,45.38
2022-12-12T05:02:17.489Z,44.95
2022-12-12T05:05:04.521Z,44.20
2022-12-12T05:07:40.077Z,43.03
2022-12-12T05:10:11.868Z,49.60
2022-12-12T05:12:50.626Z,45.58
2022-12-12T05:15:20.932Z,42.75
2022-12-12T05:18:09.456Z,46.13
2022-12-12T05:20:38.411Z,44.20
2022-12-12T05:23:05.186Z,44.25
2022-12-12T05:25:34.740Z,40.67
2022-12-12T05:28:03.595Z,42.03
2022-12-12T05:30:30.445Z,45.78
2022-12-12T05:32:57.188Z,42.13
2022-12-12T05:35:24.345Z,48.72
2022-12-12T05:37:52.268Z,45.30
2022-12-12T05:40:20.048Z,45.50
2022-12-12T05:42:46.971Z,45.45
2022-12-12T05:45:14.585Z,42.13
2022-12-12T05:47:41.573Z,44.38
2022-12-12T05:50:09.353Z,44.47
2022-12-12T05:52:36.088Z,45.03
2022-12-12T05:55:04.880Z,44.85
2022-12-12T05:57:34.152Z,47.42
2022-12-12T06:00:00.804Z,43.42
2022-12-12T06:02:27.616Z,41.30
2022-12-12T06:04:54.422Z,42.63
2022-12-12T06:07:21.106Z,40.05
2022-12-12T06:09:47.875Z,44.22
2022-12-12T06:12:14.609Z,43.17
2022-12-12T06:14:41.429Z,41.38
2022-12-12T06:17:08.217Z,42.40
2022-12-12T06:19:34.983Z,45.85
2022-12-12T06:22:01.686Z,42.97
2022-12-12T06:24:28.394Z,46.40
2022-12-12T06:26:55.152Z,42.35
2022-12-12T06:29:21.859Z,41.92
2022-12-12T06:31:48.801Z,40.50
2022-12-12T06:34:18.067Z,42.92
2022-12-12T06:36:44.797Z,44.38
2022-12-12T06:39:11.465Z,42.88
2022-12-12T06:41:38.306Z,42.67
2022-12-12T06:44:05.343Z,45.13
2022-12-12T06:46:32.321Z,44.40
2022-12-12T06:48:59.381Z,45.30
2022-12-12T06:51:29.231Z,47.60
2022-12-12T06:53:58.600Z,46.88
2022-12-12T06:56:27.399Z,46.35
2022-12-12T06:58:55.046Z,43.38
2022-12-12T07:01:23.445Z,47.15
2022-12-12T07:03:51.803Z,49.15
2022-12-12T07:06:20.945Z,46.83
2022-12-12T07:08:47.867Z,44.58
2022-12-12T07:11:17.587Z,43.17
2022-12-12T07:13:46.863Z,45.92
2022-12-12T07:16:16.390Z,44.97
2022-12-12T07:18:45.746Z,45.47
2022-12-12T07:21:16.835Z,43.88
2022-12-12T07:23:43.730Z,42.33
2022-12-12T07:26:17.311Z,38.15
2022-12-12T07:28:44.341Z,47.33
2022-12-12T07:31:13.975Z,43.33
2022-12-12T07:33:45.478Z,43.45
2022-12-12T07:36:14.592Z,41.38
2022-12-12T07:38:42.085Z,40.28
2022-12-12T07:41:11.981Z,42.28
2022-12-12T07:43:43.803Z,41.03
2022-12-12T07:46:17.616Z,40.45
2022-12-12T07:48:44.816Z,38.38
2022-12-12T07:51:12.144Z,40.22
2022-12-12T07:53:38.943Z,41.65
2022-12-12T07:56:10.939Z,41.50
2022-12-12T07:58:38.098Z,41.33
2022-12-12T08:01:20.756Z,41.67
2022-12-12T08:03:50.825Z,41.05
2022-12-12T08:06:18.893Z,43.42
2022-12-12T08:08:49.761Z,38.38
2022-12-12T08:11:19.178Z,39.43
2022-12-12T08:13:46.850Z,36.03
2022-12-12T08:16:20.809Z,38.13
2022-12-12T08:18:50.028Z,36.92
2022-12-12T08:21:24.508Z,38.45
2022-12-12T08:23:55.212Z,40.63
2022-12-12T08:26:22.091Z,44.83
2022-12-12T08:28:51.519Z,40.83
2022-12-12T08:31:20.471Z,41.40
2022-12-12T08:33:50.533Z,43.38
2022-12-12T08:36:20.969Z,41.45
2022-12-12T08:38:47.890Z,47.03
2022-12-12T08:41:15.431Z,44.72
2022-12-12T08:43:43.383Z,45.63
2022-12-12T08:46:17.049Z,43.90
2022-12-12T08:48:48.025Z,46.97
2022-12-12T08:51:16.433Z,48.80
2022-12-12T08:53:47.675Z,49.13
2022-12-12T08:56:15.320Z,51.38
2022-12-12T08:58:42.112Z,47.22
2022-12-12T09:01:13.626Z,51.08
2022-12-12T09:03:43.252Z,46.08
2022-12-12T09:06:10.869Z,45.58
2022-12-12T09:08:38.488Z,49.80
2022-12-12T09:11:08.055Z,52.67
2022-12-12T09:13:37.980Z,50.50
2022-12-12T09:16:06.450Z,50.40
2022-12-12T09:18:34.044Z,49.33
2022-12-12T09:21:00.787Z,48.15
2022-12-12T09:23:28.411Z,57.55
2022-12-12T09:25:55.707Z,60.30
2022-12-12T09:28:26.120Z,58.33
2022-12-12T09:30:53.010Z,61.50
2022-12-12T09:33:20.194Z,63.30
2022-12-12T09:35:58.527Z,60.47
2022-12-12T09:38:25.216Z,54.83
2022-12-12T09:40:59.896Z,56.30
2022-12-12T09:43:38.514Z,56.10
2022-12-12T09:46:34.336Z,53.33
2022-12-12T09:49:35.979Z,57.47
2022-12-12T09:52:05.790Z,57.08
2022-12-12T09:54:32.449Z,56.03
2022-12-12T09:57:12.503Z,55.13
2022-12-12T10:00:00.151Z,60.75
2022-12-12T10:02:39.913Z,59.35
2022-12-12T10:05:06.752Z,61.58
2022-12-12T10:07:45.495Z,60.10
2022-12-12T10:10:33.029Z,61.78
2022-12-12T10:13:02.859Z,57.45
2022-12-12T10:15:39.271Z,54.78
2022-12-12T10:18:21.379Z,57.45
2022-12-12T10:20:52.068Z,55.75
2022-12-12T10:23:26.612Z,48.72
2022-12-12T10:25:59.625Z,54.03
2022-12-12T10:28:34.528Z,51.88
2022-12-12T10:31:19.279Z,52.50
2022-12-12T10:33:45.944Z,54.78
2022-12-12T10:36:38.832Z,52.05
2022-12-12T10:39:20.542Z,49.90
2022-12-12T10:41:52.660Z,54.78
2022-12-12T10:45:03.355Z,47.40
2022-12-12T10:47:33.148Z,48.50
2022-12-12T10:50:13.512Z,47.35
2022-12-12T10:52:40.570Z,47.58
2022-12-12T10:55:23.743Z,45.35
2022-12-12T10:58:04.239Z,44.05
2022-12-12T11:00:37.276Z,45.10
2022-12-12T11:03:28.561Z,47.50
2022-12-12T11:05:56.764Z,43.25
2022-12-12T11:08:32.763Z,43.40
2022-12-12T11:11:19.565Z,40.13
2022-12-12T11:13:52.820Z,40.83
2022-12-12T11:16:26.586Z,44.05
2022-12-12T11:19:07.412Z,42.80
2022-12-12T11:21:39.265Z,39.90
2022-12-12T11:27:00.424Z,41.88
2022-12-12T11:29:27.564Z,40.22
2022-12-12T11:31:57.787Z,39.67
2022-12-12T11:34:27.124Z,41.88
2022-12-12T11:36:58.122Z,38.83
2022-12-12T11:39:42.426Z,41.53
2022-12-12T11:42:29.017Z,39.38
2022-12-12T11:45:23.855Z,39.83
2022-12-12T11:47:52.877Z,41.05
2022-12-12T11:50:23.028Z,39.33
2022-12-12T11:52:56.518Z,40.55
2022-12-12T11:55:47.141Z,40.00
2022-12-12T11:58:25.771Z,39.13
2022-12-12T12:01:00.239Z,35.90
2022-12-12T12:03:27.027Z,42.30
2022-12-12T12:06:15.654Z,36.38
2022-12-12T12:09:07.084Z,37.42
2022-12-12T12:11:45.502Z,36.40
2022-12-12T12:14:38.712Z,32.53
2022-12-12T12:17:23.628Z,36.65
2022-12-12T12:20:03.249Z,34.55
2022-12-12T12:22:44.103Z,35.95
2022-12-12T12:25:34.992Z,33.78
2022-12-12T12:28:20.366Z,33.00
2022-12-12T12:31:23.313Z,37.97
2022-12-12T12:34:01.458Z,32.97
2022-12-12T12:36:37.711Z,37.92
2022-12-12T12:39:31.635Z,33.53
2022-12-12T12:42:09.026Z,36.40
2022-12-12T12:44:46.156Z,34.20
2022-12-12T12:47:49.187Z,35.30
2022-12-12T12:50:27.501Z,35.05
2022-12-12T12:53:19.461Z,37.72
2022-12-12T12:55:53.861Z,36.03
2022-12-12T12:58:28.252Z,31.67
2022-12-12T13:01:10.788Z,32.80
2022-12-12T13:04:02.725Z,34.05
2022-12-12T13:07:00.159Z,36.78
2022-12-12T13:09:48.820Z,33.42
2022-12-12T13:12:35.729Z,32.55
2022-12-12T13:15:14.493Z,33.78
2022-12-12T13:18:13.696Z,33.85
2022-12-12T13:20:44.330Z,33.47
2022-12-12T13:23:38.809Z,33.63
2022-12-12T13:26:32.189Z,34.08
2022-12-12T13:29:23.441Z,33.47
2022-12-12T13:32:17.092Z,31.57
2022-12-12T13:34:47.885Z,29.65
2022-12-12T13:37:21.706Z,36.13
2022-12-12T13:40:01.329Z,34.75
2022-12-12T13:43:07.246Z,28.88
2022-12-12T13:45:43.296Z,31.85
2022-12-12T13:48:29.906Z,26.55
2022-12-12T13:51:27.756Z,28.40
2022-12-12T13:54:12.219Z,33.53
2022-12-12T13:56:47.250Z,28.50
2022-12-12T13:59:23.248Z,29.30
2022-12-12T14:01:52.521Z,28.25
2022-12-12T14:04:29.399Z,32.67
2022-12-12T14:07:03.267Z,27.48
2022-12-12T14:09:47.077Z,25.45
2022-12-12T14:12:31.434Z,30.67
2022-12-12T14:15:28.006Z,28.70
2022-12-12T14:18:02.697Z,31.70
2022-12-12T14:20:36.555Z,27.92
2022-12-12T14:23:10.555Z,28.17
2022-12-12T14:25:39.685Z,27.20
2022-12-12T14:28:24.548Z,31.67
2022-12-12T14:31:01.623Z,31.83
2022-12-12T14:33:59.196Z,31.85
2022-12-12T14:36:49.655Z,31.58
2022-12-12T14:39:25.868Z,31.40
2022-12-12T14:41:56.467Z,31.85
2022-12-12T14:44:37.741Z,30.38
2022-12-12T14:47:09.078Z,30.55
2022-12-12T14:49:36.206Z,28.85
2022-12-12T14:52:05.637Z,30.85
2022-12-12T14:54:32.488Z,31.30
2022-12-12T14:57:02.057Z,36.78
2022-12-12T14:59:38.928Z,33.45
2022-12-12T15:02:05.595Z,32.15
2022-12-12T15:04:35.767Z,31.50
2022-12-12T15:07:05.506Z,32.13
2022-12-12T15:09:37.394Z,29.63
2022-12-12T15:12:17.636Z,32.10
2022-12-12T15:14:47.304Z,30.27
2022-12-12T15:17:18.384Z,29.55
2022-12-12T15:19:48.438Z,30.25
2022-12-12T15:22:21.414Z,31.13
2022-12-12T15:24:51.861Z,29.90
2022-12-12T15:27:27.406Z,31.20
2022-12-12T15:29:54.862Z,29.05
2022-12-12T15:32:23.832Z,30.52
2022-12-12T15:35:08.750Z,30.08
2022-12-12T15:37:37.544Z,27.45
2022-12-12T15:40:06.954Z,34.00
2022-12-12T15:42:33.891Z,33.92
2022-12-12T15:45:01.038Z,29.75
2022-12-12T15:47:29.937Z,30.08
2022-12-12T15:50:09.463Z,29.88
2022-12-12T15:52:36.328Z,29.08
2022-12-12T15:55:05.121Z,29.60
2022-12-12T15:57:43.777Z,27.30
2022-12-12T16:00:37.589Z,31.58
2022-12-12T16:03:18.754Z,30.48
2022-12-12T16:05:58.725Z,27.97
2022-12-12T16:08:33.717Z,28.88
2022-12-12T16:11:02.853Z,30.60
2022-12-12T16:13:39.457Z,32.35
2022-12-12T16:16:34.219Z,29.92
2022-12-12T16:19:01.877Z,30.00
2022-12-12T16:21:29.738Z,32.22
2022-12-12T16:24:11.088Z,33.90
2022-12-12T16:26:37.892Z,31.80
2022-12-12T16:29:04.718Z,28.60
2022-12-12T16:31:31.507Z,30.10
2022-12-12T16:34:03.114Z,30.60
2022-12-12T16:36:29.920Z,34.83
2022-12-12T16:38:56.891Z,32.58
2022-12-12T16:41:23.614Z,34.35
2022-12-12T16:43:52.697Z,29.50
2022-12-12T16:46:23.090Z,32.63
2022-12-12T16:48:52.396Z,34.47
2022-12-12T16:51:27.516Z,33.42
2022-12-12T16:53:55.243Z,34.50
2022-12-12T16:56:22.307Z,31.75
2022-12-12T16:58:49.084Z,32.55
2022-12-12T17:01:17.053Z,34.03
2022-12-12T17:03:43.868Z,33.00
2022-12-12T17:06:10.745Z,33.50
2022-12-12T17:08:38.553Z,33.53
2022-12-12T17:11:10.649Z,32.67
2022-12-12T17:13:47.367Z,35.78
2022-12-12T17:16:14.544Z,34.90
2022-12-12T17:18:41.382Z,36.67
2022-12-12T17:21:10.740Z,34.50
2022-12-12T17:23:39.657Z,32.10
2022-12-12T17:26:08.775Z,34.90
2022-12-12T17:28:38.053Z,31.77
2022-12-12T17:31:08.720Z,32.35
2022-12-12T17:33:42.136Z,37.08
2022-12-12T17:36:16.653Z,35.75
2022-12-12T17:38:43.373Z,34.47
2022-12-12T17:41:10.835Z,36.40
2022-12-12T17:43:37.999Z,33.05
2022-12-12T17:46:14.145Z,33.15
2022-12-12T17:48:46.510Z,34.70
2022-12-12T17:51:16.792Z,34.28
2022-12-12T17:53:43.540Z,35.95
2022-12-12T17:56:13.316Z,36.83
2022-12-12T17:58:43.729Z,40.58
2022-12-12T18:01:17.655Z,36.15
2022-12-12T18:03:45.608Z,31.92
2022-12-12T18:06:13.330Z,32.78
2022-12-12T18:08:40.840Z,32.92
2022-12-12T18:11:09.015Z,33.55
2022-12-12T18:13:38.756Z,36.78
2022-12-12T18:16:09.554Z,37.20
2022-12-12T18:18:37.051Z,36.85
2022-12-12T18:21:35.796Z,37.22
2022-12-12T18:24:02.266Z,36.72
2022-12-12T18:26:29.240Z,37.63
2022-12-12T18:29:01.388Z,34.92
2022-12-12T18:31:29.334Z,36.28
2022-12-12T18:33:56.177Z,40.67
2022-12-12T18:36:27.374Z,39.15
2022-12-12T18:38:56.241Z,36.70
2022-12-12T18:41:23.431Z,41.80
2022-12-12T18:43:50.236Z,40.88
2022-12-12T18:46:19.868Z,39.70
2022-12-12T18:48:48.247Z,36.25
2022-12-12T18:51:18.362Z,41.03
2022-12-12T18:53:45.633Z,38.05
2022-12-12T18:56:15.915Z,40.25
2022-12-12T18:58:45.549Z,43.05
2022-12-12T19:01:18.998Z,43.90
2022-12-12T19:03:49.711Z,42.22
2022-12-12T19:06:19.545Z,40.58
2022-12-12T19:08:46.497Z,39.47
2022-12-12T19:11:14.268Z,41.63
2022-12-12T19:13:42.829Z,43.70
2022-12-12T19:16:15.179Z,39.78
2022-12-12T19:18:42.455Z,39.40
2022-12-12T19:21:21.698Z,39.22
2022-12-12T19:23:48.707Z,42.97
2022-12-12T19:26:19.175Z,44.05
2022-12-12T19:28:47.648Z,42.05
2022-12-12T19:31:16.249Z,38.10
2022-12-12T19:33:44.320Z,43.70
2022-12-12T19:36:23.552Z,41.42
2022-12-12T19:38:51.409Z,43.85
2022-12-12T19:41:20.220Z,40.45
2022-12-12T19:43:48.291Z,39.63
2022-12-12T19:46:18.369Z,43.90
2022-12-12T19:48:45.595Z,44.38
2022-12-12T19:51:15.881Z,44.42
2022-12-12T19:53:45.968Z,43.53
2022-12-12T19:56:14.700Z,41.65
2022-12-12T19:58:42.102Z,45.42
2022-12-12T20:01:28.759Z,43.05
2022-12-12T20:04:02.902Z,46.00
2022-12-12T20:06:30.105Z,43.55
2022-12-12T20:08:59.570Z,43.53
2022-12-12T20:11:26.963Z,46.40
2022-12-12T20:13:56.598Z,43.22
2022-12-12T20:16:25.900Z,46.45
2022-12-12T20:18:53.144Z,45.03
2022-12-12T20:21:51.759Z,47.70
2022-12-12T20:24:09.666Z,46.97
2022-12-12T20:26:39.356Z,45.63
2022-12-12T20:29:07.368Z,47.88
2022-12-12T20:31:36.157Z,44.15
2022-12-12T20:34:03.090Z,42.28
2022-12-12T20:36:33.309Z,47.65
2022-12-12T20:39:04.213Z,49.15
2022-12-12T20:41:34.232Z,49.77
2022-12-12T20:44:01.617Z,47.78
2022-12-12T20:46:30.843Z,46.13
2022-12-12T20:48:59.227Z,43.45
2022-12-12T20:54:24.126Z,46.13
2022-12-12T20:56:54.570Z,48.05
2022-12-12T20:59:22.518Z,49.08
2022-12-12T21:01:51.415Z,52.13
2022-12-12T21:04:23.587Z,48.22
2022-12-12T21:06:51.682Z,51.47
2022-12-12T21:09:24.906Z,48.33
2022-12-12T21:11:57.063Z,49.08
2022-12-12T21:14:24.976Z,51.40
2022-12-12T21:16:53.934Z,52.10
2022-12-12T21:19:22.843Z,49.75
2022-12-12T21:21:50.359Z,47.25
2022-12-12T21:24:17.959Z,53.60
2022-12-12T21:26:45.302Z,48.55
2022-12-12T21:29:12.362Z,53.45
2022-12-12T21:31:48.136Z,54.28
2022-12-12T21:34:16.945Z,51.70
2022-12-12T21:36:44.498Z,53.28
2022-12-12T21:39:11.925Z,49.42
2022-12-12T21:41:41.434Z,48.40
2022-12-12T21:44:08.162Z,52.85
2022-12-12T21:46:34.971Z,46.55
2022-12-12T21:49:19.781Z,53.63
2022-12-12T21:51:46.828Z,50.92
2022-12-12T21:54:14.598Z,48.58
2022-12-12T21:56:41.676Z,49.65
2022-12-12T21:59:09.668Z,48.45
2022-12-12T22:01:36.394Z,45.53
2022-12-12T22:04:03.165Z,46.83
2022-12-12T22:06:33.858Z,51.78
2022-12-12T22:09:02.548Z,49.92
2022-12-12T22:11:47.585Z,49.97
2022-12-12T22:14:19.523Z,50.50
2022-12-12T22:16:46.355Z,48.58
2022-12-12T22:19:15.507Z,49.13
2022-12-12T22:21:45.192Z,49.22
2022-12-12T22:24:11.981Z,47.60
2022-12-12T22:26:41.025Z,48.47
2022-12-12T22:29:13.943Z,50.13
2022-12-12T22:31:41.622Z,45.97
2022-12-12T22:34:12.937Z,46.08
2022-12-12T22:36:40.218Z,45.20
2022-12-12T22:39:08.652Z,47.08
2022-12-12T22:41:35.321Z,48.05
2022-12-12T22:44:04.348Z,48.28
2022-12-12T22:46:32.078Z,49.05
2022-12-12T22:49:01.629Z,49.58
2022-12-12T22:51:30.914Z,47.90
2022-12-12T22:54:03.384Z,47.42
2022-12-12T22:56:32.039Z,44.33
2022-12-12T22:59:00.201Z,47.13
2022-12-12T23:01:27.858Z,46.28
2022-12-12T23:03:55.065Z,47.92
2022-12-12T23:06:30.814Z,49.00
2022-12-12T23:09:21.763Z,42.15
2022-12-12T23:11:48.552Z,51.75
2022-12-12T23:14:19.360Z,45.55
2022-12-12T23:16:47.768Z,50.47
2022-12-12T23:19:18.564Z,46.25
2022-12-12T23:21:46.147Z,47.50
2022-12-12T23:24:13.262Z,47.05
2022-12-12T23:26:40.123Z,47.85
2022-12-12T23:29:09.261Z,48.05
2022-12-12T23:31:37.796Z,45.15
2022-12-12T23:34:09.983Z,54.50
2022-12-12T23:36:38.100Z,51.55
2022-12-12T23:39:06.864Z,53.25
2022-12-12T23:41:35.075Z,51.13
2022-12-12T23:44:01.945Z,46.53
2022-12-12T23:46:29.018Z,48.15
2022-12-12T23:49:01.771Z,49.03
2022-12-12T23:51:31.112Z,52.45
2022-12-12T23:54:02.008Z,49.67
2022-12-12T23:56:29.223Z,48.67
2022-12-12T23:58:57.847Z,48.33
